sensor_id;sensor_type;location;lat;lon;timestamp;temperature;humidity
782;DHT22;374;52.568;13.402;2023-06-22T00:01:08;24.40;99.90
782;DHT22;374;52.568;13.402;2023-06-22T00:03:34;24.40;99.90
782;DHT22;374;52.568;13.402;2023-06-22T00:05:59;24.40;99.90
782;DHT22;374;52.568;13.402;2023-06-22T00:08:25;24.40;99.90
782;DHT22;374;52.568;13.402;2023-06-22T00:10:50;24.40;99.90
782;DHT22;374;52.568;13.402;2023-06-22T00:13:16;24.40;99.90
782;DHT22;374;52.568;13.402;2023-06-22T00:15:43;24.30;99.90
782;DHT22;374;52.568;13.402;2023-06-22T00:18:10;24.40;99.90
782;DHT22;374;52.568;13.402;2023-06-22T00:20:36;24.30;99.90
782;DHT22;374;52.568;13.402;2023-06-22T00:23:05;24.30;99.90
782;DHT22;374;52.568;13.402;2023-06-22T00:25:38;24.30;99.90
782;DHT22;374;52.568;13.402;2023-06-22T00:28:07;24.30;99.90
782;DHT22;374;52.568;13.402;2023-06-22T00:30:33;24.30;99.90
782;DHT22;374;52.568;13.402;2023-06-22T00:32:59;24.30;99.90
782;DHT22;374;52.568;13.402;2023-06-22T00:35:26;24.30;99.90
782;DHT22;374;52.568;13.402;2023-06-22T00:37:58;24.20;99.90
782;DHT22;374;52.568;13.402;2023-06-22T00:40:32;24.20;99.90
782;DHT22;374;52.568;13.402;2023-06-22T00:42:58;24.20;99.90
782;DHT22;374;52.568;13.402;2023-06-22T00:45:24;24.10;99.90
782;DHT22;374;52.568;13.402;2023-06-22T00:47:55;24.10;99.90
782;DHT22;374;52.568;13.402;2023-06-22T00:50:22;24.10;99.90
782;DHT22;374;52.568;13.402;2023-06-22T00:52:51;24.10;99.90
782;DHT22;374;52.568;13.402;2023-06-22T00:55:21;24.10;99.90
782;DHT22;374;52.568;13.402;2023-06-22T00:57:47;24.10;99.90
782;DHT22;374;52.568;13.402;2023-06-22T01:00:14;24.10;99.90
782;DHT22;374;52.568;13.402;2023-06-22T01:02:43;24.00;99.90
782;DHT22;374;52.568;13.402;2023-06-22T01:05:14;24.00;99.90
782;DHT22;374;52.568;13.402;2023-06-22T01:10:27;24.00;99.90
782;DHT22;374;52.568;13.402;2023-06-22T01:12:59;23.90;99.90
782;DHT22;374;52.568;13.402;2023-06-22T01:15:45;23.90;99.90
782;DHT22;374;52.568;13.402;2023-06-22T01:18:13;23.90;99.90
782;DHT22;374;52.568;13.402;2023-06-22T01:20:40;23.90;99.90
782;DHT22;374;52.568;13.402;2023-06-22T01:25:45;23.80;99.90
782;DHT22;374;52.568;13.402;2023-06-22T01:28:29;23.80;99.90
782;DHT22;374;52.568;13.402;2023-06-22T01:30:56;23.80;99.90
782;DHT22;374;52.568;13.402;2023-06-22T01:33:33;23.80;99.90
782;DHT22;374;52.568;13.402;2023-06-22T01:36:01;23.70;99.90
782;DHT22;374;52.568;13.402;2023-06-22T01:38:28;23.70;99.90
782;DHT22;374;52.568;13.402;2023-06-22T01:40:55;23.70;99.90
782;DHT22;374;52.568;13.402;2023-06-22T01:43:22;23.70;99.90
782;DHT22;374;52.568;13.402;2023-06-22T01:45:50;23.70;99.90
782;DHT22;374;52.568;13.402;2023-06-22T01:48:17;23.60;99.90
782;DHT22;374;52.568;13.402;2023-06-22T01:50:43;23.60;99.90
782;DHT22;374;52.568;13.402;2023-06-22T01:53:08;23.70;99.90
782;DHT22;374;52.568;13.402;2023-06-22T01:55:34;23.60;99.90
782;DHT22;374;52.568;13.402;2023-06-22T01:58:00;23.60;99.90
782;DHT22;374;52.568;13.402;2023-06-22T02:00:28;23.60;99.90
782;DHT22;374;52.568;13.402;2023-06-22T02:03:05;23.60;99.90
782;DHT22;374;52.568;13.402;2023-06-22T02:05:38;23.60;99.90
782;DHT22;374;52.568;13.402;2023-06-22T02:08:09;23.50;99.90
782;DHT22;374;52.568;13.402;2023-06-22T02:10:37;23.50;99.90
782;DHT22;374;52.568;13.402;2023-06-22T02:13:07;23.50;99.90
782;DHT22;374;52.568;13.402;2023-06-22T02:15:33;23.50;99.90
782;DHT22;374;52.568;13.402;2023-06-22T02:17:59;23.50;99.90
782;DHT22;374;52.568;13.402;2023-06-22T02:20:25;23.40;99.90
782;DHT22;374;52.568;13.402;2023-06-22T02:22:51;23.40;99.90
782;DHT22;374;52.568;13.402;2023-06-22T02:25:16;23.40;99.90
782;DHT22;374;52.568;13.402;2023-06-22T02:27:42;23.30;99.90
782;DHT22;374;52.568;13.402;2023-06-22T02:30:10;23.30;99.90
782;DHT22;374;52.568;13.402;2023-06-22T02:32:36;23.30;99.90
782;DHT22;374;52.568;13.402;2023-06-22T02:35:02;23.30;99.90
782;DHT22;374;52.568;13.402;2023-06-22T02:37:32;23.30;99.90
782;DHT22;374;52.568;13.402;2023-06-22T02:39:57;23.30;99.90
782;DHT22;374;52.568;13.402;2023-06-22T02:42:23;23.30;99.90
782;DHT22;374;52.568;13.402;2023-06-22T02:44:48;23.20;99.90
782;DHT22;374;52.568;13.402;2023-06-22T02:47:14;23.20;99.90
782;DHT22;374;52.568;13.402;2023-06-22T02:49:40;23.20;99.90
782;DHT22;374;52.568;13.402;2023-06-22T02:52:05;23.20;99.90
782;DHT22;374;52.568;13.402;2023-06-22T02:54:31;23.20;99.90
782;DHT22;374;52.568;13.402;2023-06-22T02:56:56;23.10;99.90
782;DHT22;374;52.568;13.402;2023-06-22T02:59:22;23.10;99.90
782;DHT22;374;52.568;13.402;2023-06-22T03:01:49;23.10;99.90
782;DHT22;374;52.568;13.402;2023-06-22T03:04:15;23.10;99.90
782;DHT22;374;52.568;13.402;2023-06-22T03:06:41;23.00;99.90
782;DHT22;374;52.568;13.402;2023-06-22T03:09:07;23.10;99.90
782;DHT22;374;52.568;13.402;2023-06-22T03:11:33;23.00;99.90
782;DHT22;374;52.568;13.402;2023-06-22T03:14:01;23.00;99.90
782;DHT22;374;52.568;13.402;2023-06-22T03:16:27;23.00;99.90
782;DHT22;374;52.568;13.402;2023-06-22T03:18:53;23.00;99.90
782;DHT22;374;52.568;13.402;2023-06-22T03:21:21;23.00;99.90
782;DHT22;374;52.568;13.402;2023-06-22T03:23:47;23.00;99.90
782;DHT22;374;52.568;13.402;2023-06-22T03:26:13;23.00;99.90
782;DHT22;374;52.568;13.402;2023-06-22T03:28:38;23.00;99.90
782;DHT22;374;52.568;13.402;2023-06-22T03:31:04;23.00;99.90
782;DHT22;374;52.568;13.402;2023-06-22T03:33:32;22.90;99.90
782;DHT22;374;52.568;13.402;2023-06-22T03:35:57;22.90;99.90
782;DHT22;374;52.568;13.402;2023-06-22T03:38:23;22.90;99.90
782;DHT22;374;52.568;13.402;2023-06-22T03:40:48;22.90;99.90
782;DHT22;374;52.568;13.402;2023-06-22T03:43:14;22.90;99.90
782;DHT22;374;52.568;13.402;2023-06-22T03:45:39;22.90;99.90
782;DHT22;374;52.568;13.402;2023-06-22T03:48:05;22.80;99.90
782;DHT22;374;52.568;13.402;2023-06-22T03:50:31;22.80;99.90
782;DHT22;374;52.568;13.402;2023-06-22T03:52:56;22.80;99.90
782;DHT22;374;52.568;13.402;2023-06-22T03:55:22;22.80;99.90
782;DHT22;374;52.568;13.402;2023-06-22T03:57:47;22.70;99.90
782;DHT22;374;52.568;13.402;2023-06-22T04:00:14;22.70;99.90
782;DHT22;374;52.568;13.402;2023-06-22T04:02:41;22.70;99.90
782;DHT22;374;52.568;13.402;2023-06-22T04:05:08;22.70;99.90
782;DHT22;374;52.568;13.402;2023-06-22T04:07:33;22.70;99.90
782;DHT22;374;52.568;13.402;2023-06-22T04:09:59;22.70;99.90
782;DHT22;374;52.568;13.402;2023-06-22T04:12:24;22.70;99.90
782;DHT22;374;52.568;13.402;2023-06-22T04:14:50;22.60;99.90
782;DHT22;374;52.568;13.402;2023-06-22T04:17:15;22.60;99.90
782;DHT22;374;52.568;13.402;2023-06-22T04:19:42;22.60;99.90
782;DHT22;374;52.568;13.402;2023-06-22T04:22:08;22.70;99.90
782;DHT22;374;52.568;13.402;2023-06-22T04:24:33;22.60;99.90
782;DHT22;374;52.568;13.402;2023-06-22T04:26:59;22.60;99.90
782;DHT22;374;52.568;13.402;2023-06-22T04:29:29;22.60;99.90
782;DHT22;374;52.568;13.402;2023-06-22T04:31:58;22.60;99.90
782;DHT22;374;52.568;13.402;2023-06-22T04:34:28;22.60;99.90
782;DHT22;374;52.568;13.402;2023-06-22T04:36:54;22.60;99.90
782;DHT22;374;52.568;13.402;2023-06-22T04:39:19;22.60;99.90
782;DHT22;374;52.568;13.402;2023-06-22T04:41:45;22.70;99.90
782;DHT22;374;52.568;13.402;2023-06-22T04:44:15;22.70;99.90
782;DHT22;374;52.568;13.402;2023-06-22T04:46:53;22.60;99.90
782;DHT22;374;52.568;13.402;2023-06-22T04:49:20;22.70;99.90
782;DHT22;374;52.568;13.402;2023-06-22T04:51:46;22.60;99.90
782;DHT22;374;52.568;13.402;2023-06-22T04:54:12;22.60;99.90
782;DHT22;374;52.568;13.402;2023-06-22T04:56:37;22.70;99.90
782;DHT22;374;52.568;13.402;2023-06-22T04:59:06;22.70;99.90
782;DHT22;374;52.568;13.402;2023-06-22T05:01:32;22.60;99.90
782;DHT22;374;52.568;13.402;2023-06-22T05:03:58;22.70;99.90
782;DHT22;374;52.568;13.402;2023-06-22T05:06:26;22.70;99.90
782;DHT22;374;52.568;13.402;2023-06-22T05:08:56;22.70;99.90
782;DHT22;374;52.568;13.402;2023-06-22T05:11:29;22.70;99.90
782;DHT22;374;52.568;13.402;2023-06-22T05:13:54;22.70;99.90
782;DHT22;374;52.568;13.402;2023-06-22T05:16:20;22.70;99.90
782;DHT22;374;52.568;13.402;2023-06-22T05:18:55;22.70;99.90
782;DHT22;374;52.568;13.402;2023-06-22T05:21:23;22.70;99.90
782;DHT22;374;52.568;13.402;2023-06-22T05:23:49;22.70;99.90
782;DHT22;374;52.568;13.402;2023-06-22T05:26:16;22.70;99.90
782;DHT22;374;52.568;13.402;2023-06-22T05:28:41;22.70;99.90
782;DHT22;374;52.568;13.402;2023-06-22T05:31:11;22.70;99.90
782;DHT22;374;52.568;13.402;2023-06-22T05:33:37;22.70;99.90
782;DHT22;374;52.568;13.402;2023-06-22T05:36:03;22.70;99.90
782;DHT22;374;52.568;13.402;2023-06-22T05:38:29;22.70;99.90
782;DHT22;374;52.568;13.402;2023-06-22T05:40:54;22.70;99.90
782;DHT22;374;52.568;13.402;2023-06-22T05:43:20;22.70;99.90
782;DHT22;374;52.568;13.402;2023-06-22T05:45:45;22.70;99.90
782;DHT22;374;52.568;13.402;2023-06-22T05:48:11;22.70;99.90
782;DHT22;374;52.568;13.402;2023-06-22T05:50:37;22.70;99.90
782;DHT22;374;52.568;13.402;2023-06-22T05:53:02;22.70;99.90
782;DHT22;374;52.568;13.402;2023-06-22T05:55:28;22.70;99.90
782;DHT22;374;52.568;13.402;2023-06-22T05:57:53;22.70;99.90
782;DHT22;374;52.568;13.402;2023-06-22T06:00:19;22.70;99.90
782;DHT22;374;52.568;13.402;2023-06-22T06:02:45;22.80;99.90
782;DHT22;374;52.568;13.402;2023-06-22T06:05:11;22.80;99.90
782;DHT22;374;52.568;13.402;2023-06-22T06:07:39;22.80;99.90
782;DHT22;374;52.568;13.402;2023-06-22T06:10:05;22.80;99.60
782;DHT22;374;52.568;13.402;2023-06-22T06:12:31;22.80;99.90
782;DHT22;374;52.568;13.402;2023-06-22T06:14:57;22.80;99.90
782;DHT22;374;52.568;13.402;2023-06-22T06:17:22;22.80;99.90
782;DHT22;374;52.568;13.402;2023-06-22T06:19:48;22.80;99.90
782;DHT22;374;52.568;13.402;2023-06-22T06:22:13;22.80;99.50
782;DHT22;374;52.568;13.402;2023-06-22T06:24:39;22.90;99.90
782;DHT22;374;52.568;13.402;2023-06-22T06:27:04;22.90;99.70
782;DHT22;374;52.568;13.402;2023-06-22T06:29:30;22.90;99.70
782;DHT22;374;52.568;13.402;2023-06-22T06:31:56;22.90;99.90
782;DHT22;374;52.568;13.402;2023-06-22T06:34:22;22.90;99.90
782;DHT22;374;52.568;13.402;2023-06-22T06:36:47;22.90;99.80
782;DHT22;374;52.568;13.402;2023-06-22T06:39:13;22.90;99.50
782;DHT22;374;52.568;13.402;2023-06-22T06:41:42;22.90;99.90
782;DHT22;374;52.568;13.402;2023-06-22T06:44:07;22.90;99.90
782;DHT22;374;52.568;13.402;2023-06-22T06:46:33;22.90;99.90
782;DHT22;374;52.568;13.402;2023-06-22T06:48:58;23.00;99.70
782;DHT22;374;52.568;13.402;2023-06-22T06:51:24;23.00;99.00
782;DHT22;374;52.568;13.402;2023-06-22T06:53:49;23.10;98.80
782;DHT22;374;52.568;13.402;2023-06-22T06:56:15;23.10;98.70
782;DHT22;374;52.568;13.402;2023-06-22T06:58:41;23.10;98.70
782;DHT22;374;52.568;13.402;2023-06-22T07:01:11;23.10;98.70
782;DHT22;374;52.568;13.402;2023-06-22T07:03:37;23.10;99.00
782;DHT22;374;52.568;13.402;2023-06-22T07:06:03;23.10;97.90
782;DHT22;374;52.568;13.402;2023-06-22T07:08:29;23.20;98.10
782;DHT22;374;52.568;13.402;2023-06-22T07:10:54;23.20;98.40
782;DHT22;374;52.568;13.402;2023-06-22T07:13:20;23.20;98.40
782;DHT22;374;52.568;13.402;2023-06-22T07:15:46;23.30;98.50
782;DHT22;374;52.568;13.402;2023-06-22T07:18:11;23.30;99.00
782;DHT22;374;52.568;13.402;2023-06-22T07:20:36;23.30;98.40
782;DHT22;374;52.568;13.402;2023-06-22T07:23:02;23.30;98.60
782;DHT22;374;52.568;13.402;2023-06-22T07:25:28;23.30;98.70
782;DHT22;374;52.568;13.402;2023-06-22T07:28:02;23.30;97.70
782;DHT22;374;52.568;13.402;2023-06-22T07:30:29;23.40;97.60
782;DHT22;374;52.568;13.402;2023-06-22T07:32:55;23.40;97.80
782;DHT22;374;52.568;13.402;2023-06-22T07:35:20;23.40;97.20
782;DHT22;374;52.568;13.402;2023-06-22T07:37:46;23.40;96.70
782;DHT22;374;52.568;13.402;2023-06-22T07:40:12;23.40;96.60
782;DHT22;374;52.568;13.402;2023-06-22T07:42:38;23.50;96.70
782;DHT22;374;52.568;13.402;2023-06-22T07:45:04;23.50;97.20
782;DHT22;374;52.568;13.402;2023-06-22T07:47:31;23.50;96.80
782;DHT22;374;52.568;13.402;2023-06-22T07:50:00;23.50;96.40
782;DHT22;374;52.568;13.402;2023-06-22T07:52:30;23.50;97.00
782;DHT22;374;52.568;13.402;2023-06-22T07:54:55;23.60;96.60
782;DHT22;374;52.568;13.402;2023-06-22T07:57:21;23.60;95.40
782;DHT22;374;52.568;13.402;2023-06-22T07:59:46;23.60;95.70
782;DHT22;374;52.568;13.402;2023-06-22T08:02:12;23.70;95.10
782;DHT22;374;52.568;13.402;2023-06-22T08:04:38;23.70;96.00
782;DHT22;374;52.568;13.402;2023-06-22T08:07:04;23.70;96.70
782;DHT22;374;52.568;13.402;2023-06-22T08:09:32;23.70;95.60
782;DHT22;374;52.568;13.402;2023-06-22T08:11:58;23.70;95.10
782;DHT22;374;52.568;13.402;2023-06-22T08:14:25;23.70;95.00
782;DHT22;374;52.568;13.402;2023-06-22T08:16:51;23.80;95.40
782;DHT22;374;52.568;13.402;2023-06-22T08:19:17;23.80;94.60
782;DHT22;374;52.568;13.402;2023-06-22T08:21:43;23.90;93.90
782;DHT22;374;52.568;13.402;2023-06-22T08:24:08;23.90;95.20
782;DHT22;374;52.568;13.402;2023-06-22T08:26:34;23.90;93.30
782;DHT22;374;52.568;13.402;2023-06-22T08:29:03;23.90;93.40
782;DHT22;374;52.568;13.402;2023-06-22T08:31:28;23.90;93.20
782;DHT22;374;52.568;13.402;2023-06-22T08:33:54;23.90;93.30
782;DHT22;374;52.568;13.402;2023-06-22T08:36:19;23.90;93.10
782;DHT22;374;52.568;13.402;2023-06-22T08:38:45;24.00;92.90
782;DHT22;374;52.568;13.402;2023-06-22T08:41:13;23.90;93.70
782;DHT22;374;52.568;13.402;2023-06-22T08:43:39;24.00;92.90
782;DHT22;374;52.568;13.402;2023-06-22T08:46:04;24.00;92.10
782;DHT22;374;52.568;13.402;2023-06-22T08:48:30;24.00;92.70
782;DHT22;374;52.568;13.402;2023-06-22T08:50:55;24.00;92.60
782;DHT22;374;52.568;13.402;2023-06-22T08:53:21;24.00;94.00
782;DHT22;374;52.568;13.402;2023-06-22T08:55:46;24.00;93.70
782;DHT22;374;52.568;13.402;2023-06-22T08:58:11;24.00;94.10
782;DHT22;374;52.568;13.402;2023-06-22T09:00:37;24.00;93.20
782;DHT22;374;52.568;13.402;2023-06-22T09:03:02;24.00;93.40
782;DHT22;374;52.568;13.402;2023-06-22T09:05:28;24.10;92.90
782;DHT22;374;52.568;13.402;2023-06-22T09:07:56;24.10;93.80
782;DHT22;374;52.568;13.402;2023-06-22T09:10:22;24.10;94.20
782;DHT22;374;52.568;13.402;2023-06-22T09:12:47;24.10;93.00
782;DHT22;374;52.568;13.402;2023-06-22T09:15:13;24.10;94.30
782;DHT22;374;52.568;13.402;2023-06-22T09:17:40;24.10;94.50
782;DHT22;374;52.568;13.402;2023-06-22T09:20:06;24.10;94.40
782;DHT22;374;52.568;13.402;2023-06-22T09:22:32;24.20;94.10
782;DHT22;374;52.568;13.402;2023-06-22T09:24:58;24.30;94.70
782;DHT22;374;52.568;13.402;2023-06-22T09:27:25;24.30;94.40
782;DHT22;374;52.568;13.402;2023-06-22T09:29:50;24.30;95.50
782;DHT22;374;52.568;13.402;2023-06-22T09:32:16;24.40;93.80
782;DHT22;374;52.568;13.402;2023-06-22T09:34:41;24.40;94.40
782;DHT22;374;52.568;13.402;2023-06-22T09:37:07;24.40;94.20
782;DHT22;374;52.568;13.402;2023-06-22T09:39:32;24.40;93.80
782;DHT22;374;52.568;13.402;2023-06-22T09:41:59;24.50;94.50
782;DHT22;374;52.568;13.402;2023-06-22T09:44:25;24.50;94.50
782;DHT22;374;52.568;13.402;2023-06-22T09:46:52;24.50;93.90
782;DHT22;374;52.568;13.402;2023-06-22T09:49:18;24.60;94.60
782;DHT22;374;52.568;13.402;2023-06-22T09:51:43;24.60;94.50
782;DHT22;374;52.568;13.402;2023-06-22T09:54:09;24.70;95.50
782;DHT22;374;52.568;13.402;2023-06-22T09:56:34;24.70;93.20
782;DHT22;374;52.568;13.402;2023-06-22T09:59:00;24.70;92.90
782;DHT22;374;52.568;13.402;2023-06-22T10:01:25;24.80;93.80
782;DHT22;374;52.568;13.402;2023-06-22T10:03:52;24.80;94.10
782;DHT22;374;52.568;13.402;2023-06-22T10:06:20;24.80;93.20
782;DHT22;374;52.568;13.402;2023-06-22T10:08:45;24.80;93.30
782;DHT22;374;52.568;13.402;2023-06-22T10:11:11;24.90;92.60
782;DHT22;374;52.568;13.402;2023-06-22T10:13:36;25.10;91.40
782;DHT22;374;52.568;13.402;2023-06-22T10:16:02;25.10;91.50
782;DHT22;374;52.568;13.402;2023-06-22T10:18:27;25.10;92.30
782;DHT22;374;52.568;13.402;2023-06-22T10:20:53;25.20;92.60
782;DHT22;374;52.568;13.402;2023-06-22T10:23:19;25.20;93.10
782;DHT22;374;52.568;13.402;2023-06-22T10:25:45;25.20;91.70
782;DHT22;374;52.568;13.402;2023-06-22T10:28:10;25.30;90.70
782;DHT22;374;52.568;13.402;2023-06-22T10:30:36;25.30;91.00
782;DHT22;374;52.568;13.402;2023-06-22T10:33:01;25.30;91.20
782;DHT22;374;52.568;13.402;2023-06-22T10:35:27;25.40;89.70
782;DHT22;374;52.568;13.402;2023-06-22T10:37:52;25.40;91.80
782;DHT22;374;52.568;13.402;2023-06-22T10:40:18;25.30;90.50
782;DHT22;374;52.568;13.402;2023-06-22T10:42:44;25.30;89.60
782;DHT22;374;52.568;13.402;2023-06-22T10:45:10;25.30;91.10
782;DHT22;374;52.568;13.402;2023-06-22T10:47:36;25.40;91.10
782;DHT22;374;52.568;13.402;2023-06-22T10:50:02;25.40;92.00
782;DHT22;374;52.568;13.402;2023-06-22T10:52:28;25.40;92.10
782;DHT22;374;52.568;13.402;2023-06-22T10:54:53;25.40;90.60
782;DHT22;374;52.568;13.402;2023-06-22T10:57:19;25.40;89.50
782;DHT22;374;52.568;13.402;2023-06-22T10:59:44;25.40;88.60
782;DHT22;374;52.568;13.402;2023-06-22T11:02:10;25.40;89.00
782;DHT22;374;52.568;13.402;2023-06-22T11:04:35;25.40;89.70
782;DHT22;374;52.568;13.402;2023-06-22T11:07:01;25.40;89.80
782;DHT22;374;52.568;13.402;2023-06-22T11:09:26;25.50;88.10
782;DHT22;374;52.568;13.402;2023-06-22T11:11:52;25.50;90.30
782;DHT22;374;52.568;13.402;2023-06-22T11:14:21;25.50;88.70
782;DHT22;374;52.568;13.402;2023-06-22T11:16:47;25.50;90.00
782;DHT22;374;52.568;13.402;2023-06-22T11:19:16;25.40;89.40
782;DHT22;374;52.568;13.402;2023-06-22T11:21:42;25.40;90.80
782;DHT22;374;52.568;13.402;2023-06-22T11:24:07;25.40;90.00
782;DHT22;374;52.568;13.402;2023-06-22T11:26:33;25.50;89.50
782;DHT22;374;52.568;13.402;2023-06-22T11:28:59;25.50;89.70
782;DHT22;374;52.568;13.402;2023-06-22T11:31:24;25.50;90.60
782;DHT22;374;52.568;13.402;2023-06-22T11:33:50;25.50;89.80
782;DHT22;374;52.568;13.402;2023-06-22T11:36:16;25.50;89.40
782;DHT22;374;52.568;13.402;2023-06-22T11:38:42;25.50;90.80
782;DHT22;374;52.568;13.402;2023-06-22T11:41:09;25.60;87.70
782;DHT22;374;52.568;13.402;2023-06-22T11:43:34;25.60;88.20
782;DHT22;374;52.568;13.402;2023-06-22T11:46:02;25.60;88.60
782;DHT22;374;52.568;13.402;2023-06-22T11:48:28;25.60;89.50
782;DHT22;374;52.568;13.402;2023-06-22T11:50:53;25.70;88.70
782;DHT22;374;52.568;13.402;2023-06-22T11:53:20;25.70;90.30
782;DHT22;374;52.568;13.402;2023-06-22T11:55:47;25.70;89.10
782;DHT22;374;52.568;13.402;2023-06-22T11:58:13;25.60;88.30
782;DHT22;374;52.568;13.402;2023-06-22T12:00:38;25.70;88.20
782;DHT22;374;52.568;13.402;2023-06-22T12:03:04;25.70;88.60
782;DHT22;374;52.568;13.402;2023-06-22T12:05:29;25.70;88.30
782;DHT22;374;52.568;13.402;2023-06-22T12:07:55;25.70;88.30
782;DHT22;374;52.568;13.402;2023-06-22T12:10:22;25.70;89.40
782;DHT22;374;52.568;13.402;2023-06-22T12:12:48;25.70;87.60
782;DHT22;374;52.568;13.402;2023-06-22T12:15:16;25.70;88.10
782;DHT22;374;52.568;13.402;2023-06-22T12:17:42;25.80;86.30
782;DHT22;374;52.568;13.402;2023-06-22T12:20:08;25.80;87.30
782;DHT22;374;52.568;13.402;2023-06-22T12:22:34;25.80;87.20
782;DHT22;374;52.568;13.402;2023-06-22T12:25:00;25.80;87.30
782;DHT22;374;52.568;13.402;2023-06-22T12:27:26;25.80;88.00
782;DHT22;374;52.568;13.402;2023-06-22T12:29:51;25.80;87.80
782;DHT22;374;52.568;13.402;2023-06-22T12:32:17;25.80;87.10
782;DHT22;374;52.568;13.402;2023-06-22T12:34:43;25.80;88.10
782;DHT22;374;52.568;13.402;2023-06-22T12:37:09;25.90;87.40
782;DHT22;374;52.568;13.402;2023-06-22T12:39:35;25.80;87.60
782;DHT22;374;52.568;13.402;2023-06-22T12:42:00;25.90;87.60
782;DHT22;374;52.568;13.402;2023-06-22T12:44:26;25.90;87.80
782;DHT22;374;52.568;13.402;2023-06-22T12:47:18;25.90;88.20
782;DHT22;374;52.568;13.402;2023-06-22T13:07:01;26.00;86.30
782;DHT22;374;52.568;13.402;2023-06-22T13:09:26;26.10;85.20
782;DHT22;374;52.568;13.402;2023-06-22T13:12:28;26.30;85.00
782;DHT22;374;52.568;13.402;2023-06-22T13:22:46;26.10;86.80
782;DHT22;374;52.568;13.402;2023-06-22T13:28:45;26.10;85.00
782;DHT22;374;52.568;13.402;2023-06-22T13:31:10;26.20;84.50
782;DHT22;374;52.568;13.402;2023-06-22T13:34:04;26.20;84.90
782;DHT22;374;52.568;13.402;2023-06-22T13:37:16;26.20;84.90
782;DHT22;374;52.568;13.402;2023-06-22T13:40:09;26.20;85.70
782;DHT22;374;52.568;13.402;2023-06-22T13:49:47;26.20;86.50
782;DHT22;374;52.568;13.402;2023-06-22T13:52:13;26.20;85.30
782;DHT22;374;52.568;13.402;2023-06-22T13:54:38;26.30;85.50
782;DHT22;374;52.568;13.402;2023-06-22T13:57:05;26.30;86.00
782;DHT22;374;52.568;13.402;2023-06-22T13:59:30;26.30;84.10
782;DHT22;374;52.568;13.402;2023-06-22T14:01:56;26.30;83.90
782;DHT22;374;52.568;13.402;2023-06-22T14:04:23;26.30;84.10
782;DHT22;374;52.568;13.402;2023-06-22T14:06:49;26.30;83.90
782;DHT22;374;52.568;13.402;2023-06-22T14:09:14;26.30;84.50
782;DHT22;374;52.568;13.402;2023-06-22T14:11:40;26.40;83.40
782;DHT22;374;52.568;13.402;2023-06-22T14:14:05;26.40;83.20
782;DHT22;374;52.568;13.402;2023-06-22T14:16:31;26.40;83.80
782;DHT22;374;52.568;13.402;2023-06-22T14:18:56;26.40;82.70
782;DHT22;374;52.568;13.402;2023-06-22T14:21:22;26.40;84.50
782;DHT22;374;52.568;13.402;2023-06-22T14:23:47;26.40;84.00
782;DHT22;374;52.568;13.402;2023-06-22T14:26:15;26.40;84.90
782;DHT22;374;52.568;13.402;2023-06-22T14:28:43;26.40;84.30
782;DHT22;374;52.568;13.402;2023-06-22T14:31:15;26.40;85.80
782;DHT22;374;52.568;13.402;2023-06-22T14:33:40;26.40;83.70
782;DHT22;374;52.568;13.402;2023-06-22T14:36:06;26.50;83.30
782;DHT22;374;52.568;13.402;2023-06-22T14:38:31;26.50;83.60
782;DHT22;374;52.568;13.402;2023-06-22T14:40:57;26.50;84.00
782;DHT22;374;52.568;13.402;2023-06-22T14:43:22;26.50;83.60
782;DHT22;374;52.568;13.402;2023-06-22T14:45:48;26.50;84.30
782;DHT22;374;52.568;13.402;2023-06-22T14:48:13;26.50;83.90
782;DHT22;374;52.568;13.402;2023-06-22T14:50:42;26.50;83.30
782;DHT22;374;52.568;13.402;2023-06-22T14:53:07;26.50;83.70
782;DHT22;374;52.568;13.402;2023-06-22T14:55:33;26.50;83.90
782;DHT22;374;52.568;13.402;2023-06-22T14:57:58;26.50;84.00
782;DHT22;374;52.568;13.402;2023-06-22T15:00:24;26.50;83.60
782;DHT22;374;52.568;13.402;2023-06-22T15:02:49;26.60;82.40
782;DHT22;374;52.568;13.402;2023-06-22T15:05:16;26.60;81.30
782;DHT22;374;52.568;13.402;2023-06-22T15:07:42;26.60;82.00
782;DHT22;374;52.568;13.402;2023-06-22T15:10:08;26.70;82.60
782;DHT22;374;52.568;13.402;2023-06-22T15:12:34;26.60;84.60
782;DHT22;374;52.568;13.402;2023-06-22T15:14:59;26.60;83.60
782;DHT22;374;52.568;13.402;2023-06-22T15:17:25;26.70;82.70
782;DHT22;374;52.568;13.402;2023-06-22T15:19:54;26.70;83.30
782;DHT22;374;52.568;13.402;2023-06-22T15:22:20;26.70;82.10
782;DHT22;374;52.568;13.402;2023-06-22T15:24:45;26.70;81.00
782;DHT22;374;52.568;13.402;2023-06-22T15:27:13;26.70;81.20
782;DHT22;374;52.568;13.402;2023-06-22T15:29:39;26.70;82.60
782;DHT22;374;52.568;13.402;2023-06-22T15:32:06;26.70;82.80
782;DHT22;374;52.568;13.402;2023-06-22T15:34:32;26.70;82.10
782;DHT22;374;52.568;13.402;2023-06-22T15:36:59;26.70;82.20
782;DHT22;374;52.568;13.402;2023-06-22T15:39:24;26.70;83.30
782;DHT22;374;52.568;13.402;2023-06-22T15:41:52;26.70;82.50
782;DHT22;374;52.568;13.402;2023-06-22T15:44:19;26.70;82.50
782;DHT22;374;52.568;13.402;2023-06-22T15:46:45;26.70;82.60
782;DHT22;374;52.568;13.402;2023-06-22T15:49:11;26.80;82.80
782;DHT22;374;52.568;13.402;2023-06-22T15:51:36;26.70;82.80
782;DHT22;374;52.568;13.402;2023-06-22T15:54:02;26.70;83.60
782;DHT22;374;52.568;13.402;2023-06-22T15:56:27;26.80;83.60
782;DHT22;374;52.568;13.402;2023-06-22T15:58:53;26.80;84.30
782;DHT22;374;52.568;13.402;2023-06-22T16:01:19;26.80;83.70
782;DHT22;374;52.568;13.402;2023-06-22T16:03:44;26.80;84.10
782;DHT22;374;52.568;13.402;2023-06-22T16:06:13;26.80;84.20
782;DHT22;374;52.568;13.402;2023-06-22T16:08:38;26.80;83.20
782;DHT22;374;52.568;13.402;2023-06-22T16:11:04;26.80;83.40
782;DHT22;374;52.568;13.402;2023-06-22T16:13:29;26.80;84.50
782;DHT22;374;52.568;13.402;2023-06-22T16:15:55;26.80;84.20
782;DHT22;374;52.568;13.402;2023-06-22T16:18:20;26.80;83.60
782;DHT22;374;52.568;13.402;2023-06-22T16:20:46;26.80;84.30
782;DHT22;374;52.568;13.402;2023-06-22T16:23:11;26.80;83.80
782;DHT22;374;52.568;13.402;2023-06-22T16:25:37;26.80;83.90
782;DHT22;374;52.568;13.402;2023-06-22T16:28:02;26.80;83.60
782;DHT22;374;52.568;13.402;2023-06-22T16:30:28;26.80;83.20
782;DHT22;374;52.568;13.402;2023-06-22T16:32:55;26.80;82.80
782;DHT22;374;52.568;13.402;2023-06-22T16:35:24;26.80;82.60
782;DHT22;374;52.568;13.402;2023-06-22T16:37:49;26.80;82.90
782;DHT22;374;52.568;13.402;2023-06-22T16:40:15;26.80;82.70
782;DHT22;374;52.568;13.402;2023-06-22T16:42:46;26.90;83.50
782;DHT22;374;52.568;13.402;2023-06-22T16:45:14;26.80;82.20
782;DHT22;374;52.568;13.402;2023-06-22T16:47:41;26.80;82.50
782;DHT22;374;52.568;13.402;2023-06-22T16:50:06;26.90;82.70
782;DHT22;374;52.568;13.402;2023-06-22T16:52:32;26.80;82.50
782;DHT22;374;52.568;13.402;2023-06-22T16:54:58;26.80;82.10